ENAT/ALF METAR and TAF weather

Enter ICAO airport designator
Station Type Date Time Source
ENAT METAR 2020/07/02 18:50 UTC NOAA

ENAT 021850Z VRB01KT 9999 SCT027 BKN046 08/04 Q0999 RMK WIND 700FT 23006KT


Station Type Date Time Source
ENAT Decoded METAR 2020/07/02 18:50 UTC NOAA

Alta Lufthavn, Norway (ENAT) 69-59N 023-22E 3M
Jul 02, 2020 - 02:50 PM EDT / 2020.07.02 1850 UTC
Wind: Variable at 1 MPH (1 KT):0
Visibility: greater than 7 mile(s):0
Sky conditions: mostly cloudy
Temperature: 46 F (8 C)
Dew Point: 39 F (4 C)
Relative Humidity: 75%
Pressure (altimeter): 29.50 in. Hg (0999 hPa)
ob: ENAT 021850Z VRB01KT 9999 SCT027 BKN046 08/04 Q0999 RMK WIND 700FT 23006KT
cycle: 19

Station Type Date Time Source
ENAT TAF 2008/11/30 23:00 UTC NOAA

TAF TAF ENAT 302300Z 3023/0102 22005KT 7000 -SN FEW008 BKN020
TEMPO 3023/0102 3000 -SN VV012

Example: see airport list